createdAt,value
2019-05-13T00:02:24.122Z,2.67
2019-05-13T00:04:53.199Z,3.00
2019-05-13T00:07:20.787Z,4.13
2019-05-13T00:09:48.262Z,2.90
2019-05-13T00:12:15.769Z,4.87
2019-05-13T00:14:43.447Z,2.80
2019-05-13T00:17:11.039Z,5.23
2019-05-13T00:19:38.494Z,3.00
2019-05-13T00:22:06.524Z,3.47
2019-05-13T00:24:34.196Z,4.03
2019-05-13T00:27:03.849Z,3.27
2019-05-13T00:29:31.125Z,3.23
2019-05-13T00:31:58.583Z,3.20
2019-05-13T00:34:25.988Z,3.30
2019-05-13T00:37:07.422Z,3.53
2019-05-13T00:39:24.581Z,3.23
2019-05-13T00:41:53.154Z,2.83
2019-05-13T00:44:20.694Z,2.93
2019-05-13T00:46:48.166Z,2.67
2019-05-13T00:49:15.573Z,3.37
2019-05-13T00:51:44.459Z,4.87
2019-05-13T00:54:13.309Z,4.73
2019-05-13T00:56:43.447Z,3.70
2019-05-13T00:59:10.538Z,4.30
2019-05-13T01:01:37.902Z,3.17
2019-05-13T01:04:05.329Z,4.97
2019-05-13T01:06:34.160Z,3.40
2019-05-13T01:09:04.168Z,3.00
2019-05-13T01:11:34.148Z,3.33
2019-05-13T01:14:01.059Z,3.33
2019-05-13T01:16:28.430Z,3.23
2019-05-13T01:18:55.836Z,3.63
2019-05-13T01:21:24.022Z,4.73
2019-05-13T01:23:54.215Z,4.20
2019-05-13T01:26:23.184Z,3.63
2019-05-13T01:28:50.340Z,4.40
2019-05-13T01:31:17.715Z,3.60
2019-05-13T01:33:45.162Z,3.67
2019-05-13T01:36:13.456Z,3.27
2019-05-13T01:38:43.383Z,3.53
2019-05-13T01:41:10.380Z,3.60
2019-05-13T01:43:37.848Z,3.53
2019-05-13T01:46:05.290Z,3.80
2019-05-13T01:48:33.296Z,3.63
2019-05-13T01:51:00.903Z,3.47
2019-05-13T01:53:28.344Z,3.20
2019-05-13T01:55:55.812Z,4.00
2019-05-13T01:58:23.730Z,3.97
2019-05-13T02:00:52.726Z,3.80
2019-05-13T02:03:20.522Z,4.73
2019-05-13T02:05:47.882Z,3.83
2019-05-13T02:08:15.321Z,5.13
2019-05-13T02:11:08.534Z,5.57
2019-05-13T02:13:35.959Z,5.03
2019-05-13T02:16:04.214Z,4.33
2019-05-13T02:18:34.218Z,5.07
2019-05-13T02:21:04.849Z,5.63
2019-05-13T02:23:30.813Z,5.47
2019-05-13T02:25:58.218Z,6.87
2019-05-13T02:28:25.640Z,5.53
2019-05-13T02:30:56.165Z,6.60
2019-05-13T02:33:23.215Z,6.30
2019-05-13T02:35:53.052Z,5.77
2019-05-13T02:38:26.314Z,12.10
2019-05-13T02:40:52.371Z,10.33
2019-05-13T02:43:22.718Z,8.20
2019-05-13T02:45:48.453Z,6.00
2019-05-13T02:48:15.895Z,7.87
2019-05-13T02:50:44.155Z,7.70
2019-05-13T02:53:13.725Z,10.27
2019-05-13T02:55:43.677Z,10.27
2019-05-13T02:58:12.461Z,12.70
2019-05-13T03:00:43.810Z,12.07
2019-05-13T03:03:12.629Z,12.80
2019-05-13T03:05:38.681Z,10.60
2019-05-13T03:08:06.091Z,9.27
2019-05-13T03:10:33.491Z,9.37
2019-05-13T03:13:03.590Z,9.30
2019-05-13T03:15:39.243Z,7.83
2019-05-13T03:18:08.591Z,8.90
2019-05-13T03:20:36.778Z,8.67
2019-05-13T03:23:04.216Z,8.47
2019-05-13T03:25:33.049Z,9.27
2019-05-13T03:28:03.097Z,9.17
2019-05-13T03:30:35.378Z,9.77
2019-05-13T03:33:09.093Z,9.00
2019-05-13T03:35:35.986Z,9.17
2019-05-13T03:37:59.277Z,10.70
2019-05-13T03:40:28.191Z,10.07
2019-05-13T03:42:58.559Z,11.17
2019-05-13T03:45:27.744Z,9.90
2019-05-13T03:47:56.993Z,10.33
2019-05-13T03:50:24.413Z,8.23
2019-05-13T03:52:52.557Z,11.50
2019-05-13T03:55:23.170Z,9.17
2019-05-13T03:57:53.266Z,12.20
2019-05-13T04:00:23.171Z,9.53
2019-05-13T04:02:52.152Z,9.30
2019-05-13T04:05:22.466Z,9.97
2019-05-13T04:07:52.022Z,11.20
2019-05-13T04:10:18.154Z,10.20
2019-05-13T04:12:45.709Z,11.00
2019-05-13T04:15:14.183Z,10.20
2019-05-13T04:17:42.786Z,10.10
2019-05-13T04:20:12.571Z,9.63
2019-05-13T04:22:42.548Z,11.43
2019-05-13T04:25:12.690Z,14.30
2019-05-13T04:27:42.866Z,13.00
2019-05-13T04:30:13.353Z,12.07
2019-05-13T04:32:39.904Z,10.67
2019-05-13T04:35:07.734Z,11.80
2019-05-13T04:37:35.293Z,10.83
2019-05-13T04:40:04.246Z,9.73
2019-05-13T04:42:33.340Z,8.73
2019-05-13T04:45:02.921Z,8.53
2019-05-13T04:47:33.262Z,9.57
2019-05-13T04:50:02.923Z,10.40
2019-05-13T04:52:32.696Z,9.87
2019-05-13T04:54:58.875Z,12.87
2019-05-13T04:57:26.252Z,10.87
2019-05-13T04:59:55.022Z,11.87
2019-05-13T05:02:50.163Z,10.30
2019-05-13T05:05:36.076Z,10.70
2019-05-13T05:08:48.031Z,11.20
2019-05-13T05:11:43.659Z,10.93
2019-05-13T05:14:24.280Z,10.27
2019-05-13T05:17:32.816Z,9.87
2019-05-13T05:20:25.004Z,13.37
2019-05-13T05:23:13.857Z,12.90
2019-05-13T05:25:54.982Z,13.47
2019-05-13T05:28:41.433Z,13.83
2019-05-13T05:31:53.349Z,10.97
2019-05-13T05:35:06.511Z,13.57
2019-05-13T05:38:26.124Z,11.23
2019-05-13T05:40:57.571Z,10.43
2019-05-13T05:43:27.737Z,9.70
2019-05-13T05:45:55.270Z,11.13
2019-05-13T05:48:24.714Z,9.87
2019-05-13T05:50:54.068Z,11.20
2019-05-13T05:53:23.929Z,9.50
2019-05-13T05:55:52.759Z,10.40
2019-05-13T05:58:23.064Z,9.97
2019-05-13T06:00:54.919Z,10.43
2019-05-13T06:03:25.972Z,9.33
2019-05-13T06:05:54.360Z,10.77
2019-05-13T06:08:22.318Z,12.17
2019-05-13T06:10:53.675Z,10.47
2019-05-13T06:13:21.434Z,9.77
2019-05-13T06:15:51.245Z,9.70
2019-05-13T06:18:18.591Z,10.57
2019-05-13T06:20:46.130Z,10.17
2019-05-13T06:23:13.677Z,11.50
2019-05-13T06:25:42.742Z,11.47
2019-05-13T06:28:12.388Z,12.17
2019-05-13T06:30:41.446Z,10.30
2019-05-13T06:33:11.993Z,9.23
2019-05-13T06:35:42.581Z,9.20
2019-05-13T06:38:08.759Z,8.20
2019-05-13T06:40:36.232Z,8.50
2019-05-13T06:43:03.806Z,9.10
2019-05-13T06:45:31.694Z,8.63
2019-05-13T06:47:59.243Z,6.40
2019-05-13T06:50:26.668Z,7.23
2019-05-13T06:52:54.192Z,7.33
2019-05-13T06:55:21.632Z,7.57
2019-05-13T06:57:51.525Z,10.33
2019-05-13T07:00:18.489Z,8.73
2019-05-13T07:02:45.892Z,11.83
2019-05-13T07:05:13.460Z,10.07
2019-05-13T07:07:42.374Z,11.67
2019-05-13T07:10:12.700Z,9.60
2019-05-13T07:12:41.176Z,8.33
2019-05-13T07:15:11.387Z,7.93
2019-05-13T07:17:38.436Z,6.80
2019-05-13T07:20:06.307Z,7.73
2019-05-13T07:22:33.858Z,7.93
2019-05-13T07:25:02.714Z,8.00
2019-05-13T07:27:31.833Z,7.63
2019-05-13T07:30:01.966Z,7.27
2019-05-13T07:32:31.338Z,7.93
2019-05-13T07:34:58.249Z,7.83
2019-05-13T07:37:25.826Z,7.47
2019-05-13T07:39:53.659Z,7.07
2019-05-13T07:42:22.239Z,8.90
2019-05-13T07:44:52.237Z,8.60
2019-05-13T07:47:19.188Z,8.60
2019-05-13T07:49:46.623Z,8.50
2019-05-13T07:52:14.080Z,7.30
2019-05-13T07:54:42.042Z,6.37
2019-05-13T07:57:12.046Z,6.73
2019-05-13T07:59:39.090Z,7.00
2019-05-13T08:02:06.581Z,7.63
2019-05-13T08:04:33.954Z,8.50
2019-05-13T08:07:02.234Z,8.07
2019-05-13T08:09:31.994Z,7.57
2019-05-13T08:12:06.350Z,10.27
2019-05-13T08:14:28.741Z,7.10
2019-05-13T08:16:56.266Z,7.23
2019-05-13T08:19:23.642Z,7.10
2019-05-13T08:21:51.491Z,6.93
2019-05-13T08:24:22.451Z,7.40
2019-05-13T08:26:50.670Z,7.90
2019-05-13T08:29:18.192Z,7.03
2019-05-13T08:31:45.620Z,6.03
2019-05-13T08:34:13.184Z,6.80
2019-05-13T08:36:42.702Z,7.60
2019-05-13T08:39:12.747Z,7.40
2019-05-13T08:41:42.185Z,6.67
2019-05-13T08:44:09.117Z,7.20
2019-05-13T08:46:36.578Z,7.27
2019-05-13T08:49:04.138Z,6.97
2019-05-13T08:51:34.658Z,7.80
2019-05-13T08:54:02.393Z,6.80
2019-05-13T08:56:32.495Z,7.07
2019-05-13T08:59:01.142Z,5.77
2019-05-13T09:01:28.932Z,6.97
2019-05-13T09:03:56.348Z,7.30
2019-05-13T09:06:24.012Z,6.07
2019-05-13T09:08:53.822Z,6.00
2019-05-13T09:11:22.208Z,6.77
2019-05-13T09:13:51.547Z,7.60
2019-05-13T09:16:21.280Z,8.27
2019-05-13T09:18:48.455Z,6.10
2019-05-13T09:21:15.964Z,5.30
2019-05-13T09:23:43.503Z,4.67
2019-05-13T09:26:11.941Z,6.37
2019-05-13T09:28:41.731Z,7.33
2019-05-13T09:31:08.933Z,3.60
2019-05-13T09:33:36.296Z,4.13
2019-05-13T09:36:03.960Z,4.33
2019-05-13T09:38:32.562Z,3.83
2019-05-13T09:41:01.874Z,6.97
2019-05-13T09:43:31.540Z,4.20
2019-05-13T09:46:01.447Z,4.07
2019-05-13T09:48:28.356Z,4.00
2019-05-13T09:50:55.863Z,6.70
2019-05-13T09:53:23.332Z,13.07
2019-05-13T09:55:52.128Z,5.30
2019-05-13T09:58:22.329Z,6.90
2019-05-13T10:00:52.158Z,5.07
2019-05-13T10:03:18.904Z,4.03
2019-05-13T10:05:46.472Z,7.57
2019-05-13T10:08:13.897Z,3.67
2019-05-13T10:10:42.414Z,4.00
2019-05-13T10:13:13.103Z,4.70
2019-05-13T10:15:42.008Z,3.43
2019-05-13T10:18:08.803Z,5.90
2019-05-13T10:20:48.552Z,5.33
2019-05-13T10:23:16.627Z,4.73
2019-05-13T10:25:45.870Z,4.40
2019-05-13T10:28:13.499Z,5.70
2019-05-13T10:30:43.819Z,5.40
2019-05-13T10:33:12.394Z,3.80
2019-05-13T10:35:43.019Z,4.00
2019-05-13T10:38:13.479Z,4.77
2019-05-13T10:40:43.068Z,4.87
2019-05-13T10:43:27.059Z,5.23
2019-05-13T10:45:41.138Z,5.27
2019-05-13T10:48:10.467Z,5.13
2019-05-13T10:50:37.840Z,5.00
2019-05-13T10:53:05.245Z,4.87
2019-05-13T10:55:32.660Z,6.20
2019-05-13T10:58:02.391Z,6.80
2019-05-13T11:00:54.769Z,4.53
2019-05-13T11:03:23.127Z,3.17
2019-05-13T11:05:52.591Z,4.13
2019-05-13T11:08:22.303Z,4.60
2019-05-13T11:10:52.485Z,3.97
2019-05-13T11:13:19.305Z,9.33
2019-05-13T11:15:46.922Z,8.87
2019-05-13T11:18:19.522Z,5.43
2019-05-13T11:20:44.183Z,4.07
2019-05-13T11:23:12.389Z,4.60
2019-05-13T11:25:41.631Z,5.00
2019-05-13T11:28:11.617Z,5.50
2019-05-13T11:30:38.656Z,4.00
2019-05-13T11:33:10.076Z,3.93
2019-05-13T11:35:35.522Z,3.97
2019-05-13T11:38:03.025Z,6.07
2019-05-13T11:40:31.769Z,8.23
2019-05-13T11:43:01.699Z,5.23
2019-05-13T11:45:28.622Z,4.37
2019-05-13T11:47:56.040Z,5.80
2019-05-13T11:50:23.612Z,4.67
2019-05-13T11:52:52.432Z,5.70
2019-05-13T11:55:22.944Z,6.97
2019-05-13T11:57:52.391Z,5.30
2019-05-13T12:00:52.771Z,6.53
2019-05-13T12:03:18.785Z,5.80
2019-05-13T12:05:46.246Z,5.83
2019-05-13T12:08:13.724Z,4.87
2019-05-13T12:10:43.983Z,5.37
2019-05-13T12:13:12.522Z,5.13
2019-05-13T12:15:46.799Z,4.70
2019-05-13T12:18:12.610Z,5.83
2019-05-13T12:20:39.066Z,5.07
2019-05-13T12:23:06.520Z,6.63
2019-05-13T12:25:34.026Z,5.57
2019-05-13T12:28:03.350Z,7.17
2019-05-13T12:30:33.837Z,6.60
2019-05-13T12:33:02.573Z,6.07
2019-05-13T12:35:32.266Z,6.77
2019-05-13T12:37:58.918Z,5.43
2019-05-13T12:40:26.480Z,6.83
2019-05-13T12:42:54.166Z,5.53
2019-05-13T12:45:22.490Z,5.03
2019-05-13T12:47:50.305Z,5.77
2019-05-13T12:50:23.660Z,4.50
2019-05-13T12:52:51.446Z,6.07
2019-05-13T12:55:18.655Z,9.00
2019-05-13T12:57:46.099Z,6.73
2019-05-13T13:00:13.954Z,5.33
2019-05-13T13:02:49.164Z,8.30
2019-05-13T13:05:19.579Z,4.10
2019-05-13T13:07:42.514Z,4.70
2019-05-13T13:10:14.612Z,5.53
2019-05-13T13:12:42.072Z,4.53
2019-05-13T13:15:32.978Z,4.03
2019-05-13T13:17:41.501Z,4.70
2019-05-13T13:20:10.881Z,4.03
2019-05-13T13:22:38.570Z,5.30
2019-05-13T13:25:07.159Z,5.17
2019-05-13T13:27:59.949Z,4.43
2019-05-13T13:30:08.401Z,4.80
2019-05-13T13:32:34.325Z,4.67
2019-05-13T13:35:03.639Z,6.40
2019-05-13T13:37:34.843Z,5.27
2019-05-13T13:40:03.398Z,7.53
2019-05-13T13:42:33.022Z,4.73
2019-05-13T13:44:59.151Z,6.93
2019-05-13T13:47:26.597Z,3.83
2019-05-13T13:49:54.024Z,5.10
2019-05-13T13:52:22.691Z,4.77
2019-05-13T13:54:58.936Z,6.27
2019-05-13T13:57:25.236Z,8.17
2019-05-13T14:00:16.144Z,7.23
2019-05-13T14:02:18.370Z,7.43
2019-05-13T14:04:45.831Z,5.20
2019-05-13T14:07:26.676Z,5.80
2019-05-13T14:09:42.786Z,11.20
2019-05-13T14:12:11.318Z,7.17
2019-05-13T14:14:41.268Z,8.07
2019-05-13T14:17:08.452Z,6.67
2019-05-13T14:19:35.920Z,5.33
2019-05-13T14:22:03.460Z,5.20
2019-05-13T14:24:33.132Z,5.70
2019-05-13T14:27:02.728Z,8.60
2019-05-13T14:29:38.590Z,12.03
2019-05-13T14:32:01.200Z,6.93
2019-05-13T14:34:28.280Z,7.97
2019-05-13T14:36:55.666Z,6.83
2019-05-13T14:39:23.110Z,5.73
2019-05-13T14:41:51.638Z,6.30
2019-05-13T14:44:21.240Z,7.50
2019-05-13T14:46:48.942Z,7.03
2019-05-13T14:49:16.366Z,5.83
2019-05-13T14:51:43.767Z,7.80
2019-05-13T14:54:11.159Z,7.47
2019-05-13T14:56:38.601Z,6.13
2019-05-13T14:59:06.072Z,6.80
2019-05-13T15:01:33.483Z,6.10
2019-05-13T15:04:02.784Z,6.20
2019-05-13T15:06:32.751Z,6.03
2019-05-13T15:09:01.789Z,7.20
2019-05-13T15:11:29.051Z,7.33
2019-05-13T15:13:56.468Z,6.47
2019-05-13T15:16:24.037Z,5.07
2019-05-13T15:18:52.524Z,6.07
2019-05-13T15:21:21.327Z,7.23
2019-05-13T15:23:51.549Z,8.17
2019-05-13T15:26:18.577Z,6.37
2019-05-13T15:28:46.025Z,8.47
2019-05-13T15:31:13.470Z,7.43
2019-05-13T15:33:41.619Z,9.37
2019-05-13T15:36:11.762Z,9.17
2019-05-13T15:38:41.231Z,9.20
2019-05-13T15:41:07.926Z,7.07
2019-05-13T15:43:35.344Z,5.47
2019-05-13T15:46:02.783Z,6.70
2019-05-13T15:48:31.563Z,6.73
2019-05-13T15:50:59.103Z,6.80
2019-05-13T15:53:26.562Z,8.00
2019-05-13T15:55:54.082Z,6.70
2019-05-13T15:58:37.744Z,6.73
2019-05-13T16:00:52.371Z,7.67
2019-05-13T16:03:20.228Z,8.80
2019-05-13T16:05:47.708Z,15.30
2019-05-13T16:08:15.118Z,13.30
2019-05-13T16:10:42.525Z,9.37
2019-05-13T16:13:11.848Z,10.83
2019-05-13T16:15:41.550Z,12.33
2019-05-13T16:18:08.616Z,11.53
2019-05-13T16:20:36.458Z,10.40
2019-05-13T16:23:03.993Z,12.30
2019-05-13T16:25:31.918Z,6.43
2019-05-13T16:28:01.319Z,5.17
2019-05-13T16:30:30.902Z,4.53
2019-05-13T16:32:58.231Z,5.10
2019-05-13T16:35:25.652Z,6.87
2019-05-13T16:37:53.072Z,5.47
2019-05-13T16:40:22.291Z,7.53
2019-05-13T16:42:51.903Z,5.70
2019-05-13T16:45:21.734Z,6.93
2019-05-13T16:47:58.982Z,6.47
2019-05-13T16:50:18.536Z,6.67
2019-05-13T16:52:45.930Z,6.37
2019-05-13T16:55:13.943Z,6.80
2019-05-13T16:57:42.387Z,7.50
2019-05-13T17:00:12.194Z,7.23
2019-05-13T17:02:42.214Z,7.90
2019-05-13T17:05:11.837Z,8.73
2019-05-13T17:07:38.914Z,6.27
2019-05-13T17:10:07.135Z,7.67
2019-05-13T17:12:34.552Z,7.23
2019-05-13T17:15:02.193Z,5.83
2019-05-13T17:17:31.805Z,6.93
2019-05-13T17:19:59.231Z,6.03
2019-05-13T17:22:26.691Z,5.97
2019-05-13T17:24:54.121Z,6.53
2019-05-13T17:27:22.198Z,6.23
2019-05-13T17:29:51.630Z,7.40
2019-05-13T17:32:18.933Z,8.00
2019-05-13T17:34:46.356Z,8.13
2019-05-13T17:37:13.810Z,7.33
2019-05-13T17:39:41.604Z,7.27
2019-05-13T17:42:09.205Z,6.93
2019-05-13T17:44:36.655Z,7.03
2019-05-13T17:47:04.045Z,6.80
2019-05-13T17:49:31.996Z,6.90
2019-05-13T17:52:02.126Z,9.03
2019-05-13T17:54:31.599Z,7.67
2019-05-13T17:56:58.519Z,8.47
2019-05-13T17:59:25.931Z,9.33
2019-05-13T18:01:53.371Z,7.90
2019-05-13T18:04:22.650Z,6.80
2019-05-13T18:06:52.168Z,7.20
2019-05-13T18:09:19.442Z,8.63
2019-05-13T18:11:46.861Z,8.03
2019-05-13T18:14:14.248Z,7.17
2019-05-13T18:16:42.179Z,7.73
2019-05-13T18:19:11.918Z,6.73
2019-05-13T18:21:39.179Z,8.10
2019-05-13T18:24:06.687Z,8.10
2019-05-13T18:26:34.664Z,7.60
2019-05-13T18:29:02.103Z,7.27
2019-05-13T18:31:29.530Z,7.63
2019-05-13T18:33:56.908Z,8.03
2019-05-13T18:36:24.375Z,9.97
2019-05-13T18:38:51.824Z,8.33
2019-05-13T18:41:21.213Z,8.23
2019-05-13T18:43:48.540Z,7.20
2019-05-13T18:46:16.064Z,7.27
2019-05-13T18:48:58.211Z,7.67
2019-05-13T18:51:12.816Z,8.50
2019-05-13T18:53:41.434Z,7.93
2019-05-13T18:56:09.284Z,8.13
2019-05-13T18:58:36.837Z,7.73
2019-05-13T19:01:04.199Z,7.53
2019-05-13T19:03:32.388Z,9.50
2019-05-13T19:06:00.042Z,12.90
2019-05-13T19:08:27.432Z,16.27
2019-05-13T19:10:54.859Z,17.43
2019-05-13T19:13:22.273Z,18.53
2019-05-13T19:15:51.733Z,14.47
2019-05-13T19:18:21.288Z,18.03
2019-05-13T19:20:48.548Z,11.53
2019-05-13T19:23:15.968Z,10.87
2019-05-13T19:25:43.417Z,14.23
2019-05-13T19:28:11.990Z,10.10
2019-05-13T19:30:41.166Z,13.47
2019-05-13T19:33:08.760Z,12.17
2019-05-13T19:35:36.169Z,9.07
2019-05-13T19:38:03.562Z,9.43
2019-05-13T19:40:31.357Z,8.37
2019-05-13T19:42:58.932Z,11.23
2019-05-13T19:45:26.366Z,11.53
2019-05-13T19:47:53.828Z,9.17
2019-05-13T19:50:22.353Z,8.17
2019-05-13T19:52:51.899Z,9.10
2019-05-13T19:55:19.552Z,8.30
2019-05-13T19:57:46.962Z,9.30
2019-05-13T20:00:15.148Z,8.20
2019-05-13T20:02:42.518Z,7.13
2019-05-13T20:05:10.007Z,10.37
2019-05-13T20:07:37.431Z,7.03
2019-05-13T20:10:05.297Z,7.67
2019-05-13T20:12:32.754Z,11.53
2019-05-13T20:15:01.408Z,8.67
2019-05-13T20:17:29.243Z,8.40
2019-05-13T20:19:56.597Z,7.23
2019-05-13T20:22:23.998Z,6.60
2019-05-13T20:24:51.526Z,6.87
2019-05-13T20:27:20.941Z,6.17
2019-05-13T20:29:48.280Z,6.07
2019-05-13T20:32:15.709Z,6.30
2019-05-13T20:34:43.145Z,6.67
2019-05-13T20:37:12.471Z,6.67
2019-05-13T20:39:42.283Z,6.97
2019-05-13T20:42:09.147Z,6.73
2019-05-13T20:44:36.515Z,6.20
2019-05-13T20:47:04.040Z,7.07
2019-05-13T20:49:31.500Z,6.53
2019-05-13T20:52:01.011Z,6.27
2019-05-13T20:54:28.527Z,6.70
2019-05-13T20:56:55.998Z,8.10
2019-05-13T20:59:23.453Z,7.60
2019-05-13T21:01:51.238Z,11.67
2019-05-13T21:04:21.392Z,8.87
2019-05-13T21:06:48.361Z,8.60
2019-05-13T21:09:17.152Z,9.83
2019-05-13T21:11:45.027Z,8.93
2019-05-13T21:14:12.402Z,7.80
2019-05-13T21:16:41.648Z,9.57
2019-05-13T21:19:09.093Z,14.37
2019-05-13T21:21:36.539Z,14.33
2019-05-13T21:24:04.088Z,13.43
2019-05-13T21:26:31.588Z,8.13
2019-05-13T21:28:59.022Z,8.50
2019-05-13T21:31:26.434Z,7.60
2019-05-13T21:33:53.871Z,8.87
2019-05-13T21:36:21.665Z,9.40
2019-05-13T21:38:49.418Z,9.83
2019-05-13T21:41:16.895Z,17.93
2019-05-13T21:43:44.248Z,23.37
2019-05-13T21:46:12.138Z,12.70
2019-05-13T21:48:41.651Z,10.80
2019-05-13T21:51:13.226Z,11.40
2019-05-13T21:53:38.424Z,11.80
2019-05-13T21:56:05.963Z,18.60
2019-05-13T21:58:33.314Z,20.33
2019-05-13T22:01:01.854Z,18.77
2019-05-13T22:03:33.229Z,21.00
2019-05-13T22:05:58.629Z,26.07
2019-05-13T22:08:26.047Z,34.03
2019-05-13T22:10:53.667Z,31.23
2019-05-13T22:13:21.087Z,30.60
2019-05-13T22:15:48.444Z,30.67
2019-05-13T22:18:15.864Z,20.07
2019-05-13T22:20:49.732Z,14.13
2019-05-13T22:23:12.699Z,12.83
2019-05-13T22:25:43.469Z,14.87
2019-05-13T22:28:11.791Z,16.30
2019-05-13T22:30:41.256Z,14.60
2019-05-13T22:33:08.761Z,14.50
2019-05-13T22:35:36.165Z,16.40
2019-05-13T22:38:03.546Z,13.93
2019-05-13T22:40:32.253Z,13.93
2019-05-13T22:42:59.879Z,16.00
2019-05-13T22:45:27.288Z,16.07
2019-05-13T22:47:54.686Z,15.63
2019-05-13T22:50:22.117Z,14.23
2019-05-13T22:52:49.562Z,13.33
2019-05-13T22:55:16.906Z,12.43
2019-05-13T22:57:44.331Z,12.67
2019-05-13T23:00:12.186Z,13.77
2019-05-13T23:02:42.093Z,14.23
2019-05-13T23:05:11.222Z,14.13
2019-05-13T23:07:38.523Z,14.13
2019-05-13T23:10:06.133Z,14.50
2019-05-13T23:12:33.590Z,13.83
2019-05-13T23:15:01.387Z,14.93
2019-05-13T23:17:28.870Z,14.27
2019-05-13T23:19:56.283Z,13.83
2019-05-13T23:22:23.688Z,14.67
2019-05-13T23:24:51.035Z,15.17
2019-05-13T23:27:18.469Z,14.73
2019-05-13T23:29:46.010Z,13.60
2019-05-13T23:32:13.529Z,15.03
2019-05-13T23:34:42.346Z,15.50
2019-05-13T23:37:11.354Z,16.83
2019-05-13T23:39:38.903Z,16.67
2019-05-13T23:42:06.341Z,17.63
2019-05-13T23:44:33.756Z,24.97
2019-05-13T23:47:01.221Z,16.03
2019-05-13T23:49:28.597Z,16.90
2019-05-13T23:51:56.025Z,16.63
2019-05-13T23:54:23.451Z,17.67
2019-05-13T23:56:50.799Z,14.60
2019-05-13T23:59:18.216Z,19.07
